Time;durP1;ratioP1;P1;durP2;ratioP2;P2;SDS_P1;SDS_P2;PMS_P1;PMS_P2;Temp;Humidity;BMP_temperature;BMP_pressure;BME280_temperature;BME280_humidity;BME280_pressure;Samples;Min_cycle;Max_cycle;Signal;HPM_P1;HPM_P2
2022/06/07 00:00:46;;;;;;;3.50;3.00;;;;;;;13.26;75.28;99064.27;104556;1274;77050;-26
2022/06/07 00:03:14;;;;;;;4.40;2.80;;;;;;;13.32;75.03;99068.79;104838;1274;76980;-26
2022/06/07 00:05:43;;;;;;;4.90;3.00;;;;;;;13.17;75.33;99067.44;104603;1274;75397;-26
2022/06/07 00:08:12;;;;;;;3.60;3.30;;;;;;;12.93;75.44;99063.27;104676;1274;61945;-26
2022/06/07 00:10:39;;;;;;;2.70;2.40;;;;;;;12.69;75.45;99064.05;104657;1274;62055;-26
2022/06/07 00:13:07;;;;;;;4.80;2.80;;;;;;;12.39;75.62;99062.52;104659;1274;75357;-25
2022/06/07 00:15:34;;;;;;;3.30;2.20;;;;;;;12.18;76.25;99059.01;104649;1274;77071;-25
2022/06/07 00:18:03;;;;;;;2.70;2.00;;;;;;;12.60;76.59;99058.70;104690;1274;75326;-25
2022/06/07 00:20:30;;;;;;;3.20;2.90;;;;;;;13.14;75.49;99057.95;104943;1274;63116;-25
2022/06/07 00:22:58;;;;;;;4.50;2.80;;;;;;;13.19;75.02;99062.31;104725;1274;61814;-25
2022/06/07 00:25:25;;;;;;;4.20;3.30;;;;;;;13.02;74.57;99063.86;104553;1275;74702;-25
2022/06/07 00:27:53;;;;;;;3.40;3.10;;;;;;;12.76;74.52;99062.71;104674;1272;76914;-25
2022/06/07 00:30:20;;;;;;;5.70;3.10;;;;;;;12.45;74.99;99058.90;104511;1275;75522;-25
2022/06/07 00:32:47;;;;;;;3.90;1.70;;;;;;;12.17;75.83;99055.73;104817;1274;63084;-25
2022/06/07 00:35:15;;;;;;;3.10;2.50;;;;;;;12.47;76.11;99056.79;104562;1277;62872;-25
2022/06/07 00:37:42;;;;;;;3.90;2.30;;;;;;;12.92;75.27;99053.09;104622;1274;75698;-25
2022/06/07 00:40:10;;;;;;;5.50;2.80;;;;;;;12.93;74.60;99050.04;104593;1274;75871;-25
2022/06/07 00:42:37;;;;;;;4.30;2.90;;;;;;;12.72;74.88;99050.23;104628;1274;74260;-25
2022/06/07 00:45:05;;;;;;;8.30;3.30;;;;;;;12.44;75.78;99048.84;104645;1274;61745;-25
2022/06/07 00:47:33;;;;;;;5.60;3.30;;;;;;;12.18;76.34;99051.00;104649;1274;61343;-25
2022/06/07 00:50:08;;;;;;;4.00;1.80;;;;;;;11.96;76.92;99051.14;104832;1274;75522;-25
2022/06/07 00:52:36;;;;;;;4.00;2.30;;;;;;;12.36;76.87;99050.45;104718;1276;76826;-25
2022/06/07 00:55:04;;;;;;;9.50;2.90;;;;;;;12.84;75.53;99047.88;104814;1274;75368;-26
2022/06/07 00:57:42;;;;;;;3.90;3.10;;;;;;;12.88;75.38;99046.98;104727;1274;61926;-25
2022/06/07 01:00:15;;;;;;;5.50;2.80;;;;;;;12.68;75.25;99048.64;104744;1274;62107;-25
2022/06/07 01:02:43;;;;;;;5.40;2.70;;;;;;;12.40;75.08;99044.49;104673;1275;76575;-25
2022/06/07 01:05:11;;;;;;;7.10;3.50;;;;;;;12.16;75.74;99042.83;104615;1275;75130;-25
2022/06/07 01:10:45;;;;;;;3.10;2.30;;;;;;;12.42;76.60;99042.08;104645;1275;62978;-25
2022/06/07 01:13:27;;;;;;;7.90;3.60;;;;;;;12.82;75.42;99042.00;104604;1274;62300;-25
2022/06/07 01:16:02;;;;;;;5.80;2.90;;;;;;;12.76;75.94;99039.92;104584;1275;76539;-25
2022/06/07 01:18:33;;;;;;;3.40;2.90;;;;;;;12.51;75.60;99038.52;104717;1274;76971;-25
2022/06/07 01:21:22;;;;;;;7.90;3.30;;;;;;;12.23;75.75;99040.11;104628;1274;75081;-25
2022/06/07 01:23:49;;;;;;;8.70;3.30;;;;;;;11.93;77.33;99036.97;104544;1274;63458;-25
2022/06/07 01:26:19;;;;;;;5.00;1.90;;;;;;;11.75;77.40;99038.98;104582;1274;63132;-25
2022/06/07 01:28:47;;;;;;;3.60;2.50;;;;;;;12.13;76.56;99041.11;104596;1274;76591;-25
2022/06/07 01:31:14;;;;;;;4.10;2.40;;;;;;;12.51;75.48;99044.23;104672;1274;76837;-25
2022/06/07 01:33:42;;;;;;;2.80;2.40;;;;;;;12.49;75.27;99043.56;104569;1274;74375;-25
2022/06/07 01:36:13;;;;;;;2.90;2.40;;;;;;;12.29;76.36;99047.39;104794;1274;63347;-25
2022/06/07 01:38:41;;;;;;;3.70;2.70;;;;;;;12.08;76.74;99044.40;104630;1274;63069;-25
2022/06/07 01:43:55;;;;;;;2.30;1.50;;;;;;;11.65;77.10;99040.44;104705;1274;76796;-25
2022/06/07 01:46:22;;;;;;;2.50;2.10;;;;;;;12.13;77.05;99041.13;104677;1274;74349;-25
2022/06/07 01:48:50;;;;;;;4.80;2.00;;;;;;;12.66;75.21;99040.26;104670;1273;63049;-25
2022/06/07 01:51:17;;;;;;;3.70;2.80;;;;;;;12.70;74.49;99038.91;104545;1274;62089;-26
2022/06/07 01:53:45;;;;;;;4.80;2.10;;;;;;;12.51;74.59;99034.13;104469;1274;76270;-25
2022/06/07 01:56:16;;;;;;;6.70;3.10;;;;;;;12.24;75.33;99031.65;104650;1277;75802;-25
2022/06/07 01:58:47;;;;;;;5.90;4.60;;;;;;;11.95;76.09;99032.04;104566;1271;73391;-25
2022/06/07 02:01:14;;;;;;;3.60;2.20;;;;;;;11.74;77.01;99029.84;104679;1274;64544;-25
2022/06/07 02:03:41;;;;;;;3.80;2.70;;;;;;;12.11;76.66;99027.55;104899;1274;63009;-25
2022/06/07 02:06:12;;;;;;;5.90;2.50;;;;;;;12.61;75.55;99027.48;104958;1274;74491;-25
2022/06/07 02:08:41;;;;;;;6.90;2.70;;;;;;;12.64;74.84;99030.69;104689;1274;77493;-25
2022/06/07 02:11:13;;;;;;;6.30;2.90;;;;;;;12.45;74.75;99028.97;104931;1274;75683;-25
2022/06/07 02:13:41;;;;;;;4.80;2.90;;;;;;;12.17;75.26;99024.61;104605;1271;62064;-25
2022/06/07 02:16:09;;;;;;;6.70;3.40;;;;;;;11.88;75.41;99027.27;104514;1274;63021;-25
2022/06/07 02:18:37;;;;;;;5.90;2.30;;;;;;;11.70;76.21;99024.11;104738;1271;76199;-25
2022/06/07 02:21:10;;;;;;;4.70;2.20;;;;;;;12.12;76.05;99026.10;104836;1274;77172;-25
2022/06/07 02:23:38;;;;;;;6.70;2.80;;;;;;;12.65;74.54;99028.02;104619;1274;74536;-25
2022/06/07 02:26:29;;;;;;;5.80;3.00;;;;;;;12.77;73.47;99023.08;104611;1274;61823;-25
2022/06/07 02:28:59;;;;;;;4.20;2.80;;;;;;;12.77;72.38;99026.88;104522;1274;62043;-25
2022/06/07 02:31:27;;;;;;;8.00;3.10;;;;;;;12.68;72.24;99026.20;104614;1271;75235;-25
2022/06/07 02:33:55;;;;;;;11.80;3.80;;;;;;;12.41;72.64;99027.70;104733;1271;77466;-25
2022/06/07 02:36:22;;;;;;;7.50;3.60;;;;;;;12.20;74.04;99019.66;104555;1274;75507;-25
2022/06/07 02:38:49;;;;;;;8.80;2.20;;;;;;;12.17;73.62;99022.55;104658;1274;63665;-25
2022/06/07 02:41:19;;;;;;;7.80;2.70;;;;;;;12.80;73.43;99025.80;104852;1271;61703;-26
2022/06/07 02:43:46;;;;;;;3.60;2.60;;;;;;;13.71;71.39;99017.77;104627;1271;74499;-25
2022/06/07 02:46:15;;;;;;;6.80;2.80;;;;;;;14.16;69.23;99016.48;104765;1271;77085;-25
2022/06/07 02:48:42;;;;;;;3.50;2.80;;;;;;;14.20;68.27;99016.49;104741;1274;75600;-26
2022/06/07 02:51:11;;;;;;;8.60;3.40;;;;;;;14.23;68.92;99013.85;104626;1274;63308;-25
2022/06/07 02:53:38;;;;;;;4.10;3.10;;;;;;;14.35;69.25;99014.10;104551;1274;61094;-25
2022/06/07 02:56:06;;;;;;;5.70;3.10;;;;;;;14.49;68.81;99016.48;104630;1274;75612;-25
2022/06/07 02:58:34;;;;;;;9.20;2.80;;;;;;;14.63;68.46;99016.42;104618;1274;76361;-25
2022/06/07 03:01:03;;;;;;;6.20;2.60;;;;;;;15.38;68.38;99014.45;104453;1274;73646;-25
2022/06/07 03:03:35;;;;;;;8.00;2.60;;;;;;;16.27;66.19;99009.13;104764;1273;62750;-25
2022/06/07 03:06:03;;;;;;;4.70;2.90;;;;;;;16.57;65.02;99012.89;104617;1272;63026;-25
2022/06/07 03:08:31;;;;;;;3.70;2.70;;;;;;;16.65;64.29;99011.60;104402;1274;75043;-25
2022/06/07 03:11:00;;;;;;;4.40;2.60;;;;;;;16.75;63.67;99014.63;104705;1274;74979;-25
2022/06/07 03:13:28;;;;;;;6.80;3.10;;;;;;;16.82;63.45;99013.98;104685;1274;75821;-25
2022/06/07 03:15:56;;;;;;;5.40;2.80;;;;;;;16.90;63.10;99010.48;104722;1273;61183;-25
2022/06/07 03:18:24;;;;;;;8.60;3.90;;;;;;;17.03;63.08;99010.71;104691;1272;61445;-25
2022/06/07 03:20:52;;;;;;;8.60;3.30;;;;;;;17.16;63.33;99010.02;104702;1275;76054;-26
2022/06/07 03:23:22;;;;;;;6.90;3.10;;;;;;;17.26;63.25;99011.02;105018;1274;75882;-25
2022/06/07 03:26:04;;;;;;;3.40;2.10;;;;;;;17.48;63.17;99012.11;104909;1274;75430;-25
2022/06/07 03:28:33;;;;;;;2.70;2.00;;;;;;;18.32;62.27;99009.93;104729;1274;62865;-25
2022/06/07 03:31:12;;;;;;;6.20;3.00;;;;;;;19.13;60.45;99011.75;104768;1275;63345;-25
2022/06/07 03:33:43;;;;;;;5.80;2.80;;;;;;;19.51;58.88;99011.51;104902;1274;76911;-25
2022/06/07 03:36:18;;;;;;;7.40;2.90;;;;;;;19.51;58.84;99011.38;104295;1274;75733;-25
2022/06/07 03:38:46;;;;;;;4.20;3.20;;;;;;;19.56;59.17;99014.22;104726;1274;75364;-24
2022/06/07 03:41:21;;;;;;;11.50;4.30;;;;;;;19.65;58.61;99015.86;104960;1274;61361;-25
2022/06/07 03:43:51;;;;;;;9.70;6.80;;;;;;;19.60;58.35;99021.14;104643;1274;61792;-25
2022/06/07 03:46:22;;;;;;;10.80;8.40;;;;;;;19.48;58.63;99021.99;104732;1274;76270;-25
2022/06/07 03:48:50;;;;;;;16.30;11.90;;;;;;;19.43;59.20;99022.60;104675;1274;75729;-25
2022/06/07 03:51:19;;;;;;;20.60;13.50;;;;;;;19.44;59.34;99022.02;104730;1274;75894;-25
2022/06/07 03:53:46;;;;;;;21.20;14.50;;;;;;;19.45;59.60;99022.77;104891;1274;61826;-25
2022/06/07 03:56:15;;;;;;;24.30;16.60;;;;;;;19.49;59.76;99018.06;104756;1272;61963;-25
2022/06/07 03:58:43;;;;;;;27.30;17.30;;;;;;;19.61;59.57;99018.70;104781;1271;76694;-25
2022/06/07 04:01:15;;;;;;;19.00;13.60;;;;;;;19.80;59.10;99015.06;104693;1274;76358;-25
2022/06/07 04:03:46;;;;;;;22.00;14.30;;;;;;;19.94;59.03;99012.55;104553;1271;75407;-25
2022/06/07 04:06:25;;;;;;;19.50;12.00;;;;;;;20.06;58.64;99013.91;104491;1274;62879;-25
2022/06/07 04:08:56;;;;;;;19.80;11.80;;;;;;;20.13;58.71;99013.85;104392;1274;63398;-25
2022/06/07 04:11:26;;;;;;;16.50;11.40;;;;;;;20.12;58.67;99009.65;104689;1274;75686;-25
2022/06/07 04:13:57;;;;;;;14.30;11.30;;;;;;;20.23;58.67;99011.71;104363;1274;75844;-25
2022/06/07 04:16:27;;;;;;;12.70;10.60;;;;;;;20.37;57.98;99013.46;104626;1272;75770;-25
2022/06/07 04:18:58;;;;;;;7.40;6.30;;;;;;;20.52;57.27;99013.64;104619;1274;62189;-25
2022/06/07 04:21:26;;;;;;;6.30;5.70;;;;;;;20.64;56.06;99013.54;105030;1273;62117;-25
2022/06/07 04:24:02;;;;;;;8.30;5.40;;;;;;;20.75;56.07;99013.09;104609;1272;76553;-24
2022/06/07 04:26:31;;;;;;;9.70;5.30;;;;;;;20.96;55.39;99014.52;104619;1274;75860;-25
2022/06/07 04:28:59;;;;;;;6.50;5.10;;;;;;;21.13;55.35;99015.11;104752;1274;75360;-25
2022/06/07 04:31:27;;;;;;;9.90;5.10;;;;;;;21.23;55.29;99008.77;104619;1272;61616;-24
2022/06/07 04:34:01;;;;;;;6.60;5.70;;;;;;;21.42;52.75;99008.77;104590;1272;63321;-24
2022/06/07 04:36:29;;;;;;;7.70;5.90;;;;;;;21.41;53.15;99010.97;104768;1274;75915;-24
2022/06/07 04:38:57;;;;;;;5.60;5.00;;;;;;;21.50;53.91;99009.43;105140;1271;77310;-24
2022/06/07 04:41:28;;;;;;;9.70;8.40;;;;;;;21.73;53.57;99006.88;104888;1273;75496;-24
2022/06/07 04:43:58;;;;;;;10.10;9.10;;;;;;;21.89;54.42;99007.87;104906;1271;63042;-24
2022/06/07 04:46:27;;;;;;;10.90;9.60;;;;;;;22.01;54.06;99007.54;104799;1274;61890;-25
2022/06/07 04:48:57;;;;;;;10.90;9.10;;;;;;;22.15;53.41;99003.30;104609;1274;76621;-25
2022/06/07 04:51:31;;;;;;;9.50;8.40;;;;;;;22.18;52.79;99000.45;104611;1274;76475;-24
2022/06/07 04:54:09;;;;;;;7.00;6.30;;;;;;;22.22;52.48;99000.42;104572;1274;73759;-24
2022/06/07 04:56:46;;;;;;;6.20;5.60;;;;;;;22.30;52.16;99002.77;104667;1273;62170;-25
2022/06/07 04:59:13;;;;;;;5.60;5.10;;;;;;;22.33;52.14;99002.95;104608;1274;62748;-24
2022/06/07 05:01:49;;;;;;;5.10;4.60;;;;;;;22.46;51.79;99005.53;104762;1274;74894;-24
2022/06/07 05:04:22;;;;;;;5.20;4.70;;;;;;;22.54;51.45;99006.92;104709;1274;76212;-24
2022/06/07 05:06:51;;;;;;;5.30;4.10;;;;;;;22.52;51.31;99010.91;104857;1274;73831;-24
2022/06/07 05:09:31;;;;;;;6.20;4.30;;;;;;;22.64;51.05;99008.42;104640;1274;61983;-24
2022/06/07 05:12:04;;;;;;;4.10;3.70;;;;;;;22.82;50.30;99005.27;104770;1274;61134;-24
2022/06/07 05:14:36;;;;;;;3.60;3.30;;;;;;;22.98;49.98;99011.36;104650;1274;75276;-24
2022/06/07 05:17:03;;;;;;;3.50;3.10;;;;;;;23.16;49.67;99011.28;104822;1274;76997;-23
2022/06/07 05:19:34;;;;;;;9.90;3.70;;;;;;;23.31;49.59;99006.73;104951;1274;74944;-24
2022/06/07 05:22:09;;;;;;;3.30;3.00;;;;;;;23.40;48.86;99006.61;104552;1274;62855;-23
2022/06/07 05:24:43;;;;;;;5.70;3.50;;;;;;;23.55;48.46;99005.98;104683;1274;63076;-24
2022/06/07 05:27:15;;;;;;;6.60;2.70;;;;;;;23.69;48.28;99010.30;104602;1274;76811;-23
2022/06/07 05:29:48;;;;;;;3.70;3.30;;;;;;;23.68;47.60;99005.95;104583;1274;76891;-24
2022/06/07 05:32:24;;;;;;;3.60;2.70;;;;;;;23.74;47.29;99002.27;104701;1274;75393;-24
2022/06/07 05:34:53;;;;;;;3.50;2.70;;;;;;;23.78;47.26;98998.36;104616;1274;62078;-24
2022/06/07 05:37:21;;;;;;;3.60;2.30;;;;;;;23.96;47.28;98995.92;104567;1274;62038;-23
2022/06/07 05:39:58;;;;;;;5.30;2.20;;;;;;;24.21;46.19;98994.27;104608;1274;75636;-23
2022/06/07 05:42:25;;;;;;;3.10;2.80;;;;;;;24.45;45.57;98995.73;104715;1274;77342;-23
2022/06/07 05:44:53;;;;;;;2.40;2.20;;;;;;;24.59;45.53;98995.58;104658;1274;75865;-24
2022/06/07 05:47:21;;;;;;;4.60;2.20;;;;;;;24.62;44.14;98999.39;104619;1274;62409;-23
2022/06/07 05:49:52;;;;;;;3.30;2.30;;;;;;;24.75;44.71;99004.04;104695;1274;62781;-23
2022/06/07 05:52:22;;;;;;;3.10;2.60;;;;;;;24.86;44.55;98999.86;104653;1274;76851;-24
2022/06/07 05:54:50;;;;;;;5.10;4.00;;;;;;;25.10;43.48;99009.27;104538;1273;76275;-23
2022/06/07 05:57:18;;;;;;;3.70;3.30;;;;;;;25.37;43.21;99009.17;104600;1274;73742;-24
2022/06/07 05:59:46;;;;;;;13.10;8.50;;;;;;;25.52;42.37;99002.10;104579;1274;61491;-24
2022/06/07 06:02:13;;;;;;;8.90;6.60;;;;;;;25.43;42.66;99001.52;104552;1274;62817;-24
2022/06/07 06:04:41;;;;;;;10.30;8.20;;;;;;;25.40;42.62;98998.93;104568;1274;76700;-23
2022/06/07 06:07:09;;;;;;;4.60;3.50;;;;;;;25.47;42.86;98998.05;104667;1274;77052;-23
2022/06/07 06:12:28;;;;;;;6.50;2.60;;;;;;;25.86;40.30;98991.59;105026;1274;62161;-23
2022/06/07 06:15:08;;;;;;;4.40;2.80;;;;;;;26.05;40.16;98990.00;104671;1274;61968;-24
2022/06/07 06:17:36;;;;;;;5.10;2.40;;;;;;;26.24;40.79;98992.00;104706;1274;75898;-23
2022/06/07 06:20:11;;;;;;;2.80;2.20;;;;;;;26.32;39.98;98991.92;104829;1274;77366;-24
2022/06/07 06:22:42;;;;;;;2.30;2.10;;;;;;;26.44;40.25;98991.52;104639;1274;73591;-23
2022/06/07 06:25:09;;;;;;;3.40;2.30;;;;;;;26.61;39.74;98992.85;104757;1274;61173;-23
2022/06/07 06:27:37;;;;;;;2.30;2.00;;;;;;;26.74;39.89;98989.89;104718;1274;61995;-23
2022/06/07 06:30:07;;;;;;;4.50;2.10;;;;;;;26.93;38.83;98987.52;104636;1274;76018;-23
2022/06/07 06:32:35;;;;;;;3.40;2.20;;;;;;;26.92;38.33;98984.69;104375;1274;76873;-24
2022/06/07 06:35:04;;;;;;;5.60;2.20;;;;;;;26.96;37.45;98987.88;104669;1274;75427;-23
2022/06/07 06:37:31;;;;;;;4.90;3.80;;;;;;;26.56;37.49;98990.12;104621;1274;63155;-23
2022/06/07 06:40:03;;;;;;;4.40;3.00;;;;;;;26.17;38.48;98993.10;104537;1274;63219;-23
2022/06/07 06:42:33;;;;;;;3.90;2.70;;;;;;;26.35;38.95;98989.86;104463;1274;75552;-24
2022/06/07 06:45:25;;;;;;;5.50;2.40;;;;;;;26.56;37.58;98989.31;104720;1274;76719;-24
2022/06/07 06:47:55;;;;;;;2.70;2.50;;;;;;;26.69;37.49;98986.83;104642;1274;75489;-23
2022/06/07 06:50:23;;;;;;;4.40;2.30;;;;;;;26.74;36.59;98983.21;104558;1274;61283;-24
2022/06/07 06:52:50;;;;;;;2.10;1.80;;;;;;;26.91;35.79;98980.55;104702;1274;61758;-23
2022/06/07 06:55:18;;;;;;;3.40;2.10;;;;;;;26.81;36.27;98977.34;104659;1274;76817;-23
2022/06/07 06:57:47;;;;;;;3.40;2.10;;;;;;;26.96;37.82;98980.13;104822;1274;77033;-24
2022/06/07 07:00:15;;;;;;;1.80;1.60;;;;;;;27.15;37.29;98979.18;104684;1274;75349;-23
2022/06/07 07:02:43;;;;;;;2.50;1.80;;;;;;;27.03;35.79;98975.41;104371;1274;61361;-22
2022/06/07 07:05:13;;;;;;;2.30;1.90;;;;;;;26.94;36.44;98973.98;104632;1274;63224;-22
2022/06/07 07:07:43;;;;;;;2.30;1.80;;;;;;;27.12;35.46;98972.61;104540;1274;75643;-23
2022/06/07 07:10:16;;;;;;;3.10;1.50;;;;;;;27.34;36.65;98971.16;104832;1274;76218;-23
2022/06/07 07:12:44;;;;;;;1.50;1.40;;;;;;;27.45;35.94;98971.17;104798;1274;75723;-22
2022/06/07 07:15:13;;;;;;;2.80;1.60;;;;;;;27.48;33.73;98971.23;104730;1274;61818;-22
2022/06/07 07:17:48;;;;;;;2.00;1.40;;;;;;;27.36;35.10;98971.64;104802;1274;61878;-22
2022/06/07 07:20:16;;;;;;;2.10;1.50;;;;;;;27.54;34.24;98973.55;104949;1274;76310;-23
2022/06/07 07:22:46;;;;;;;2.30;1.40;;;;;;;27.59;34.68;98971.61;104647;1274;77747;-23
2022/06/07 07:25:14;;;;;;;1.30;1.20;;;;;;;27.36;32.28;98967.20;104614;1274;73892;-23
2022/06/07 07:27:42;;;;;;;2.20;1.50;;;;;;;27.11;34.75;98972.80;104512;1274;62169;-23
2022/06/07 07:30:10;;;;;;;2.80;1.60;;;;;;;27.27;35.10;98972.65;104688;1274;61477;-22
2022/06/07 07:32:38;;;;;;;1.60;1.30;;;;;;;27.48;33.51;98969.64;104655;1274;76219;-24
2022/06/07 07:35:08;;;;;;;2.00;1.30;;;;;;;27.56;34.18;98970.79;104614;1274;77211;-23
2022/06/07 07:37:45;;;;;;;1.30;1.20;;;;;;;27.40;34.72;98971.89;104583;1274;74386;-23
2022/06/07 07:40:14;;;;;;;2.70;1.40;;;;;;;27.41;35.43;98970.98;104597;1273;63170;-24
2022/06/07 07:42:42;;;;;;;1.50;1.20;;;;;;;27.65;33.89;98967.77;104600;1274;61703;-24
2022/06/07 07:45:12;;;;;;;2.90;1.40;;;;;;;27.83;34.52;98966.80;104785;1274;76555;-22
2022/06/07 07:47:41;;;;;;;1.70;1.60;;;;;;;27.94;32.84;98962.60;104578;1274;76895;-25
2022/06/07 07:50:11;;;;;;;2.00;1.80;;;;;;;27.97;33.86;98966.02;104739;1272;74316;-22
2022/06/07 07:52:41;;;;;;;3.30;1.60;;;;;;;27.15;33.62;98968.70;104457;1274;63271;-24
2022/06/07 07:55:11;;;;;;;3.00;1.70;;;;;;;26.89;35.21;98965.87;104660;1274;61802;-24
2022/06/07 07:57:38;;;;;;;2.40;1.60;;;;;;;26.60;35.51;98967.67;104633;1274;76099;-24
2022/06/07 08:00:09;;;;;;;1.90;1.30;;;;;;;26.16;35.26;98970.23;104872;1274;75958;-24
2022/06/07 08:02:46;;;;;;;2.40;1.40;;;;;;;26.16;35.30;98974.01;104604;1274;75713;-22
2022/06/07 08:05:24;;;;;;;1.70;1.40;;;;;;;26.49;33.33;98971.54;104772;1274;61996;-23
2022/06/07 08:07:52;;;;;;;6.50;1.80;;;;;;;26.58;34.07;98972.27;104671;1274;62285;-23
2022/06/07 08:10:24;;;;;;;1.80;1.40;;;;;;;26.41;33.37;98970.39;104656;1274;76583;-23
2022/06/07 08:12:56;;;;;;;4.10;1.80;;;;;;;25.87;33.56;98969.59;104588;1274;77023;-23
2022/06/07 08:15:24;;;;;;;2.10;1.40;;;;;;;25.96;35.65;98972.91;104730;1274;75353;-23
2022/06/07 08:17:52;;;;;;;2.50;1.70;;;;;;;26.00;36.02;98971.13;104572;1274;63217;-23
2022/06/07 08:20:21;;;;;;;2.30;1.70;;;;;;;26.38;35.98;98970.23;104651;1274;62980;-23
2022/06/07 08:22:49;;;;;;;2.50;1.30;;;;;;;26.44;35.07;98973.04;104681;1274;76886;-23
2022/06/07 08:25:19;;;;;;;5.00;1.70;;;;;;;25.98;34.69;98974.85;104813;1274;75963;-23
2022/06/07 08:27:46;;;;;;;2.50;1.90;;;;;;;25.54;34.68;98972.52;104811;1274;74412;-25
2022/06/07 08:30:14;;;;;;;2.80;2.00;;;;;;;25.00;34.57;98977.21;104630;1273;61762;-25
2022/06/07 08:32:42;;;;;;;4.70;2.10;;;;;;;24.98;36.42;98972.55;104417;1274;61747;-23
2022/06/07 08:37:59;;;;;;;1.80;1.50;;;;;;;25.05;35.65;98965.11;104628;1274;77075;-23
2022/06/07 08:40:43;;;;;;;2.10;1.60;;;;;;;25.44;35.58;98965.52;104645;1274;75497;-24
2022/06/07 08:43:20;;;;;;;1.70;1.50;;;;;;;25.76;37.86;98965.15;104644;1274;61725;-23
2022/06/07 08:45:48;;;;;;;3.10;1.40;;;;;;;26.28;35.27;98962.55;104618;1274;61882;-23
2022/06/07 08:48:26;;;;;;;2.10;1.80;;;;;;;26.53;35.31;98962.83;104577;1274;76739;-24
2022/06/07 08:51:19;;;;;;;2.50;1.80;;;;;;;26.42;34.92;98960.97;104739;1274;76912;-23
2022/06/07 08:53:50;;;;;;;2.80;1.70;;;;;;;26.06;34.46;98958.92;104673;1274;75152;-23
2022/06/07 08:56:21;;;;;;;3.20;1.70;;;;;;;26.26;35.14;98956.00;104548;1274;61578;-24
2022/06/07 08:58:49;;;;;;;2.40;1.30;;;;;;;26.90;35.02;98952.81;104653;1274;61515;-23
2022/06/07 09:01:33;;;;;;;2.70;1.70;;;;;;;27.51;32.53;98943.12;104615;1274;76524;-23
2022/06/07 09:04:17;;;;;;;1.50;1.40;;;;;;;27.47;31.87;98942.56;104759;1274;75849;-23
2022/06/07 09:06:47;;;;;;;6.60;1.80;;;;;;;26.78;33.16;98942.92;104646;1274;75410;-23
2022/06/07 09:09:16;;;;;;;2.90;1.60;;;;;;;27.13;34.90;98945.38;104772;1274;62831;-23
2022/06/07 09:12:14;;;;;;;2.40;1.60;;;;;;;27.06;32.53;98943.66;104920;1274;63053;-24
2022/06/07 09:14:49;;;;;;;2.40;1.40;;;;;;;26.49;33.70;98948.44;104757;1274;75367;-24
2022/06/07 09:17:21;;;;;;;1.70;1.30;;;;;;;26.32;32.18;98947.77;104742;1273;76247;-24
2022/06/07 09:19:49;;;;;;;2.00;1.30;;;;;;;26.25;34.46;98948.80;104427;1274;74482;-24
2022/06/07 09:22:25;;;;;;;2.70;1.30;;;;;;;26.28;36.12;98951.05;104707;1274;63007;-24
2022/06/07 09:24:58;;;;;;;2.00;1.60;;;;;;;26.21;34.54;98946.86;104665;1274;61917;-24
2022/06/07 09:27:26;;;;;;;;;;;;;;;26.18;35.91;98943.23;104733;1274;75211;-24
2022/06/07 09:29:59;;;;;;;3.50;1.60;;;;;;;26.49;34.80;98938.50;104646;1274;77039;-24
2022/06/07 09:32:29;;;;;;;4.20;1.40;;;;;;;26.72;34.18;98938.63;104723;1274;75467;-24
2022/06/07 09:34:58;;;;;;;3.70;1.40;;;;;;;26.92;33.79;98936.88;104623;1274;62962;-24
2022/06/07 09:37:54;;;;;;;1.60;1.40;;;;;;;27.07;32.85;98928.37;104743;1274;62120;-24
2022/06/07 09:40:41;;;;;;;2.10;1.70;;;;;;;26.54;33.38;98935.86;104399;1274;76595;-24
2022/06/07 09:43:11;;;;;;;2.50;1.50;;;;;;;26.55;35.21;98934.79;104618;1274;76955;-24
2022/06/07 09:45:51;;;;;;;1.70;1.50;;;;;;;27.10;34.12;98933.06;104499;1274;75231;-24
2022/06/07 09:48:41;;;;;;;4.30;1.50;;;;;;;27.18;34.14;98937.60;104608;1274;62995;-24
2022/06/07 09:51:19;;;;;;;2.40;1.40;;;;;;;27.67;32.94;98933.47;104625;1274;62759;-24
2022/06/07 09:54:07;;;;;;;2.80;1.40;;;;;;;27.55;31.99;98929.56;105082;1274;73861;-24
2022/06/07 09:56:42;;;;;;;2.80;1.70;;;;;;;27.25;31.26;98927.77;104764;1274;76231;-24
2022/06/07 09:59:55;;;;;;;2.40;1.30;;;;;;;27.54;31.29;98924.02;104750;1274;74325;-24
2022/06/07 10:02:58;;;;;;;2.10;1.40;;;;;;;27.75;30.93;98918.25;104706;1274;62004;-24
2022/06/07 10:05:39;;;;;;;3.10;1.30;;;;;;;27.94;31.45;98917.55;104379;1274;369737;-24
2022/06/07 10:08:15;;;;;;;1.60;1.40;;;;;;;27.98;32.66;98913.27;104688;1274;75446;-24
2022/06/07 10:10:50;;;;;;;1.70;1.30;;;;;;;28.22;30.96;98912.72;104404;1274;76199;-24
2022/06/07 10:13:30;;;;;;;1.70;1.30;;;;;;;28.54;29.72;98908.39;104715;1274;75645;-24
2022/06/07 10:16:30;;;;;;;1.40;1.30;;;;;;;28.96;30.44;98912.06;104605;1274;62022;-24
2022/06/07 10:19:24;;;;;;;1.80;1.30;;;;;;;28.94;30.64;98906.40;104829;1274;61642;-24
2022/06/07 10:22:10;;;;;;;2.80;1.50;;;;;;;28.21;29.63;98908.82;104693;1274;75473;-24
2022/06/07 10:24:50;;;;;;;3.00;1.30;;;;;;;27.85;30.01;98906.75;104743;1274;75698;-24
2022/06/07 10:27:33;;;;;;;5.40;1.30;;;;;;;27.28;30.11;98905.09;104867;1274;74424;-24
2022/06/07 10:30:27;;;;;;;4.20;1.40;;;;;;;28.19;33.74;98898.03;104607;1274;63202;-24
2022/06/07 10:33:00;;;;;;;1.80;1.30;;;;;;;28.61;29.76;98895.36;104700;1274;63367;-24
2022/06/07 10:35:45;;;;;;;2.70;1.20;;;;;;;28.43;29.47;98892.66;104921;1273;75639;-24
2022/06/07 10:38:36;;;;;;;1.80;1.10;;;;;;;28.11;31.26;98891.81;104695;1274;77094;-24
2022/06/07 10:41:12;;;;;;;3.50;1.70;;;;;;;27.96;32.62;98892.54;104605;1274;74635;-24
2022/06/07 10:44:08;;;;;;;1.90;1.60;;;;;;;28.66;32.52;98892.38;104601;1274;61769;-24
2022/06/07 10:46:37;;;;;;;1.90;1.50;;;;;;;29.58;29.41;98888.00;104727;1274;63061;-24
2022/06/07 10:49:18;;;;;;;4.00;1.30;;;;;;;30.14;30.05;98882.77;104703;1274;74381;-24
2022/06/07 10:52:20;;;;;;;1.50;1.20;;;;;;;30.36;28.68;98882.32;104470;1274;77074;-24
2022/06/07 10:54:57;;;;;;;4.40;1.60;;;;;;;28.78;27.96;98888.99;104889;1274;75312;-24
2022/06/07 10:57:57;;;;;;;1.60;1.00;;;;;;;28.39;28.46;98891.00;104730;1274;62811;-24
2022/06/07 11:00:33;;;;;;;4.10;1.20;;;;;;;28.71;30.27;98886.02;104776;1274;61706;-24
2022/06/07 11:03:14;;;;;;;1.30;1.20;;;;;;;28.71;28.62;98882.64;104429;1274;75522;-24
2022/06/07 11:11:22;;;;;;;;;;;;;;;28.46;33.38;98880.04;104649;1274;63076;-24
2022/06/07 11:14:00;;;;;;;1.70;1.20;;;;;;;29.11;30.33;98872.41;104613;1274;61640;-25
2022/06/07 11:16:39;;;;;;;2.60;1.40;;;;;;;29.57;29.36;98864.92;104560;1274;75256;-24
2022/06/07 11:19:08;;;;;;;2.90;1.20;;;;;;;29.80;28.54;98865.28;104623;1274;75879;-24
2022/06/07 11:21:37;;;;;;;2.50;1.20;;;;;;;29.91;28.91;98866.29;104637;1272;75195;-24
2022/06/07 11:24:29;;;;;;;2.60;1.30;;;;;;;30.34;28.29;98858.03;104645;1274;63082;-24
2022/06/07 11:27:13;;;;;;;2.10;1.30;;;;;;;30.85;29.60;98854.45;104764;1274;63122;-24
2022/06/07 11:32:39;;;;;;;1.70;1.10;;;;;;;29.84;27.56;98852.30;101699;1309;600745;-23
2022/06/07 11:35:45;;;;;;;1.20;1.00;;;;;;;29.35;28.56;98850.98;103948;1284;63110;-24
2022/06/07 11:38:24;;;;;;;1.30;1.00;;;;;;;28.95;28.15;98849.07;103931;1284;61985;-24
2022/06/07 11:41:36;;;;;;;1.10;1.00;;;;;;;29.17;29.02;98846.84;103724;1284;73819;-24
2022/06/07 11:43:49;;;;;;;2.00;1.20;;;;;;;29.76;29.65;98843.73;103893;1286;76971;-24
2022/06/07 11:46:35;;;;;;;2.10;1.30;;;;;;;29.97;29.13;98844.22;103650;1284;374025;-24
2022/06/07 11:49:23;;;;;;;1.20;1.10;;;;;;;29.89;28.81;98846.52;103757;1284;61975;-24
2022/06/07 11:52:14;;;;;;;1.60;1.20;;;;;;;29.62;28.44;98845.66;103794;1284;61964;-24
2022/06/07 11:54:45;;;;;;;2.60;1.20;;;;;;;29.71;28.64;98837.63;103729;1286;74682;-24
2022/06/07 11:57:32;;;;;;;2.20;1.40;;;;;;;30.15;29.32;98841.83;103861;1283;76041;-25
2022/06/07 12:00:03;;;;;;;2.70;1.30;;;;;;;30.55;29.50;98835.75;104279;1283;74445;-24
2022/06/07 12:02:38;;;;;;;2.70;1.20;;;;;;;30.80;28.31;98836.06;104317;1283;62107;-24
2022/06/07 12:05:19;;;;;;;2.20;1.00;;;;;;;30.62;28.48;98834.28;104286;1284;61685;-24
2022/06/07 12:07:52;;;;;;;3.20;1.50;;;;;;;30.63;28.78;98826.58;103701;1283;75957;-24
2022/06/07 12:10:19;;;;;;;1.70;1.20;;;;;;;30.57;29.31;98829.85;104179;1286;76978;-22